Impacts METAR Board INFO
IDs:

KSAN - San Diego Intl Arpt, CA, US

Updated at: 0418 UTC 18 Jan 2018
Potential Impact None Slight Moderate High
Time17/16Z 17/17Z 17/18Z 17/19Z 17/20Z 17/21Z 17/22Z 17/23Z 18/00Z 18/01Z 18/02Z 18/03Z 18/04Z
VIS0.25 10 10 10 10 10 10 7 7 6 7 7 7
CIG3 -- -- -- 250 250 250 -- -- -- -- -- --
CoverOVXSCTSCTSCTBKNBKNBKNSCTSCTSCTSCTSCTSCT
FltCatLIFRVFRVFRVFRVFRVFRVFRVFRVFRVFRVFRVFRVFR
WXFG----------------HZ------
WDir31033003103403203103103203403202900
WSpd3 3 0 4 5 9 11 9 6 6 4 3 0
WGst-- -- -- -- -- -- -- -- -- -- -- -- --
Raw hourly METARs
KSAN 171602Z 31003KT 1/4SM R09/0500V1400FT FG VV003 12/12 A3017 RMK AO2 T01220117
KSAN 171651Z 33003KT 10SM R09/1000VP6000FT FEW001 SCT200 SCT250 13/12 A3020 RMK AO2 SLP224 VIS SW-W 1 FG FEW001 T01330122
KSAN 171751Z 00000KT 10SM FEW003 FEW200 SCT250 17/12 A3019 RMK AO2 SLP223 T01720117 10172 20117 50012
KSAN 171851Z 31004KT 10SM FEW200 SCT250 20/11 A3017 RMK AO2 SLP215 T02000106
KSAN 171951Z 34005KT 10SM FEW200 BKN250 21/09 A3014 RMK AO2 SLP206 T02060094
KSAN 172051Z 32009KT 10SM SCT200 BKN250 22/08 A3012 RMK AO2 SLP198 T02170083 56025
KSAN 172151Z 31011KT 10SM SCT200 BKN250 19/12 A3011 RMK AO2 SLP194 T01890122
KSAN 172251Z 31009KT 7SM FEW004 FEW200 SCT250 19/14 A3011 RMK AO2 SLP194 T01940139
KSAN 172351Z 32006KT 7SM FEW004 FEW200 SCT250 18/14 A3011 RMK AO2 SLP197 T01830139 10222 20172 55001
KSAN 180051Z 34006KT 6SM HZ FEW005 FEW200 SCT250 19/11 A3011 RMK AO2 SLP197 T01940111
KSAN 180151Z 32004KT 7SM FEW005 FEW200 SCT250 18/12 A3012 RMK AO2 SLP198 T01780122
KSAN 180251Z 29003KT 7SM FEW005 FEW200 SCT250 17/12 A3012 RMK AO2 SLP199 T01720117 53002
KSAN 180351Z 00000KT 7SM FEW005 FEW200 SCT250 17/11 A3012 RMK AO2 SLP197 T01720106